N11816 KFFA-KW95
Flight info
| Callsign | N11816 |
|---|---|
| Flight time | 0h 42m |
| Altitude | 2500 |
| Route | SOUTHWEST BOUND |
| Aircraft | C152/L-SFG/C |
Departure
| Time | 2026-05-08 00:55 |
|---|---|
| Airport | First Flight Airport (KFFA) |
Arrival
| Time | 2026-05-08 01:37 |
|---|---|
| Airport | Ocracoke Island Airport (KW95) |
| Time | Latitude | Longitude | Altitude | Speed | Heading |
|---|---|---|---|---|---|
| 2026-05-08 00:51 | 36.01440 | -75.67181 | 17 ft | 0 kts | 11° |
| 2026-05-08 00:52 | 36.01451 | -75.67185 | 17 ft | 6 kts | 320° |
| 2026-05-08 00:53 | 36.01458 | -75.67255 | 15 ft | 13 kts | 203° |
| 2026-05-08 00:53 | 36.01378 | -75.67278 | 15 ft | 8 kts | 201° |
| 2026-05-08 00:53 | 36.01403 | -75.67279 | 15 ft | 9 kts | 14° |
| 2026-05-08 00:53 | 36.01565 | -75.67224 | 14 ft | 45 kts | 15° |
| 2026-05-08 00:54 | 36.01989 | -75.67083 | 40 ft | 75 kts | 15° |
| 2026-05-08 00:54 | 36.02497 | -75.66884 | 175 ft | 78 kts | 19° |
| 2026-05-08 00:54 | 36.03026 | -75.66697 | 370 ft | 77 kts | 356° |
| 2026-05-08 00:54 | 36.03407 | -75.67116 | 533 ft | 81 kts | 288° |
| 2026-05-08 00:55 | 36.03574 | -75.67806 | 652 ft | 87 kts | 284° |
| 2026-05-08 00:55 | 36.03417 | -75.68505 | 762 ft | 92 kts | 229° |
| 2026-05-08 00:55 | 36.02853 | -75.68843 | 900 ft | 91 kts | 189° |
| 2026-05-08 00:55 | 36.02237 | -75.68910 | 1062 ft | 89 kts | 185° |
| 2026-05-08 00:56 | 36.01608 | -75.68978 | 1191 ft | 90 kts | 187° |
| 2026-05-08 00:56 | 36.00984 | -75.69041 | 1330 ft | 90 kts | 186° |
| 2026-05-08 00:56 | 36.00355 | -75.69079 | 1466 ft | 90 kts | 181° |
| 2026-05-08 00:56 | 35.99732 | -75.69069 | 1620 ft | 89 kts | 176° |
| 2026-05-08 00:57 | 35.99140 | -75.68866 | 1768 ft | 88 kts | 162° |
| 2026-05-08 00:57 | 35.98551 | -75.68675 | 1915 ft | 87 kts | 172° |
| 2026-05-08 00:57 | 35.97954 | -75.68632 | 2065 ft | 85 kts | 183° |
| 2026-05-08 00:57 | 35.97370 | -75.68695 | 2216 ft | 84 kts | 189° |
| 2026-05-08 00:58 | 35.96809 | -75.68817 | 2364 ft | 82 kts | 193° |
| 2026-05-08 00:58 | 35.96238 | -75.68974 | 2473 ft | 87 kts | 195° |
| 2026-05-08 00:58 | 35.95621 | -75.69167 | 2493 ft | 97 kts | 196° |
| 2026-05-08 00:58 | 35.94954 | -75.69383 | 2499 ft | 101 kts | 196° |
| 2026-05-08 00:59 | 35.94264 | -75.69608 | 2500 ft | 103 kts | 196° |
| 2026-05-08 00:59 | 35.93565 | -75.69835 | 2499 ft | 104 kts | 196° |
| 2026-05-08 00:59 | 35.92863 | -75.70062 | 2501 ft | 105 kts | 196° |
| 2026-05-08 00:59 | 35.92157 | -75.70291 | 2500 ft | 105 kts | 196° |
| 2026-05-08 01:00 | 35.91449 | -75.70521 | 2504 ft | 105 kts | 196° |
| 2026-05-08 01:00 | 35.90740 | -75.70751 | 2499 ft | 105 kts | 196° |
| 2026-05-08 01:00 | 35.90032 | -75.70981 | 2497 ft | 105 kts | 196° |
| 2026-05-08 01:00 | 35.89328 | -75.71208 | 2498 ft | 105 kts | 196° |
| 2026-05-08 01:01 | 35.88625 | -75.71436 | 2499 ft | 104 kts | 196° |
| 2026-05-08 01:01 | 35.87921 | -75.71664 | 2500 ft | 104 kts | 196° |
| 2026-05-08 01:01 | 35.87218 | -75.71892 | 2501 ft | 105 kts | 196° |
| 2026-05-08 01:01 | 35.86514 | -75.72120 | 2502 ft | 105 kts | 196° |
| 2026-05-08 01:02 | 35.85809 | -75.72348 | 2502 ft | 105 kts | 196° |
| 2026-05-08 01:02 | 35.85104 | -75.72576 | 2501 ft | 105 kts | 196° |
| 2026-05-08 01:02 | 35.84400 | -75.72804 | 2501 ft | 105 kts | 196° |
| 2026-05-08 01:02 | 35.83705 | -75.73029 | 2501 ft | 105 kts | 196° |
| 2026-05-08 01:03 | 35.83001 | -75.73256 | 2502 ft | 104 kts | 196° |
| 2026-05-08 01:03 | 35.82296 | -75.73483 | 2502 ft | 104 kts | 195° |
| 2026-05-08 01:03 | 35.81589 | -75.73709 | 2508 ft | 105 kts | 196° |
| 2026-05-08 01:03 | 35.80878 | -75.73939 | 2509 ft | 106 kts | 196° |
| 2026-05-08 01:04 | 35.80165 | -75.74169 | 2508 ft | 106 kts | 196° |
| 2026-05-08 01:04 | 35.79448 | -75.74401 | 2507 ft | 107 kts | 196° |
| 2026-05-08 01:04 | 35.78730 | -75.74633 | 2504 ft | 107 kts | 196° |
| 2026-05-08 01:04 | 35.78016 | -75.74864 | 2497 ft | 106 kts | 196° |
| 2026-05-08 01:05 | 35.77306 | -75.75093 | 2495 ft | 105 kts | 195° |
| 2026-05-08 01:05 | 35.76601 | -75.75321 | 2499 ft | 105 kts | 196° |
| 2026-05-08 01:05 | 35.75903 | -75.75545 | 2498 ft | 105 kts | 195° |
| 2026-05-08 01:05 | 35.75199 | -75.75772 | 2498 ft | 104 kts | 196° |
| 2026-05-08 01:06 | 35.74497 | -75.75999 | 2499 ft | 104 kts | 196° |
| 2026-05-08 01:06 | 35.73794 | -75.76225 | 2500 ft | 104 kts | 196° |
| 2026-05-08 01:06 | 35.73092 | -75.76452 | 2501 ft | 104 kts | 196° |
| 2026-05-08 01:06 | 35.72389 | -75.76679 | 2502 ft | 104 kts | 196° |
| 2026-05-08 01:07 | 35.71686 | -75.76906 | 2503 ft | 105 kts | 196° |
| 2026-05-08 01:07 | 35.70982 | -75.77133 | 2502 ft | 105 kts | 196° |
| 2026-05-08 01:07 | 35.70278 | -75.77360 | 2502 ft | 105 kts | 196° |
| 2026-05-08 01:07 | 35.69573 | -75.77587 | 2501 ft | 105 kts | 196° |
| 2026-05-08 01:08 | 35.68869 | -75.77814 | 2501 ft | 104 kts | 196° |
| 2026-05-08 01:08 | 35.68166 | -75.78040 | 2501 ft | 104 kts | 196° |
| 2026-05-08 01:08 | 35.67464 | -75.78267 | 2502 ft | 104 kts | 196° |
| 2026-05-08 01:08 | 35.66760 | -75.78494 | 2503 ft | 105 kts | 196° |
| 2026-05-08 01:09 | 35.66059 | -75.78720 | 2501 ft | 103 kts | 196° |
| 2026-05-08 01:09 | 35.65373 | -75.78940 | 2500 ft | 101 kts | 196° |
| 2026-05-08 01:09 | 35.64708 | -75.79154 | 2500 ft | 100 kts | 196° |
| 2026-05-08 01:09 | 35.64037 | -75.79370 | 2501 ft | 99 kts | 196° |
| 2026-05-08 01:10 | 35.63369 | -75.79585 | 2503 ft | 99 kts | 196° |
| 2026-05-08 01:10 | 35.62700 | -75.79802 | 2503 ft | 99 kts | 196° |
| 2026-05-08 01:10 | 35.62030 | -75.80017 | 2503 ft | 99 kts | 196° |
| 2026-05-08 01:10 | 35.61362 | -75.80232 | 2502 ft | 99 kts | 196° |
| 2026-05-08 01:11 | 35.60696 | -75.80456 | 2501 ft | 99 kts | 202° |
| 2026-05-08 01:11 | 35.60211 | -75.81027 | 2501 ft | 97 kts | 229° |
| 2026-05-08 01:11 | 35.59768 | -75.81657 | 2505 ft | 98 kts | 230° |
| 2026-05-08 01:11 | 35.59325 | -75.82298 | 2505 ft | 99 kts | 230° |
| 2026-05-08 01:12 | 35.58904 | -75.82962 | 2503 ft | 98 kts | 233° |
| 2026-05-08 01:12 | 35.58489 | -75.83632 | 2501 ft | 98 kts | 233° |
| 2026-05-08 01:12 | 35.58076 | -75.84302 | 2501 ft | 98 kts | 233° |
| 2026-05-08 01:12 | 35.57662 | -75.84971 | 2501 ft | 98 kts | 233° |
| 2026-05-08 01:13 | 35.57249 | -75.85640 | 2502 ft | 98 kts | 233° |
| 2026-05-08 01:13 | 35.56840 | -75.86299 | 2501 ft | 98 kts | 233° |
| 2026-05-08 01:13 | 35.56426 | -75.86967 | 2501 ft | 98 kts | 233° |
| 2026-05-08 01:13 | 35.56012 | -75.87633 | 2501 ft | 98 kts | 233° |
| 2026-05-08 01:14 | 35.55597 | -75.88300 | 2501 ft | 98 kts | 233° |
| 2026-05-08 01:14 | 35.55183 | -75.88965 | 2501 ft | 98 kts | 233° |
| 2026-05-08 01:14 | 35.54767 | -75.89633 | 2502 ft | 98 kts | 233° |
| 2026-05-08 01:14 | 35.54351 | -75.90298 | 2502 ft | 98 kts | 233° |
| 2026-05-08 01:15 | 35.53935 | -75.90964 | 2502 ft | 98 kts | 233° |
| 2026-05-08 01:15 | 35.53518 | -75.91629 | 2502 ft | 98 kts | 233° |
| 2026-05-08 01:15 | 35.53101 | -75.92294 | 2501 ft | 98 kts | 233° |
| 2026-05-08 01:15 | 35.52684 | -75.92957 | 2501 ft | 98 kts | 233° |
| 2026-05-08 01:16 | 35.52271 | -75.93612 | 2502 ft | 98 kts | 233° |
| 2026-05-08 01:16 | 35.51852 | -75.94276 | 2503 ft | 98 kts | 233° |
| 2026-05-08 01:16 | 35.51442 | -75.94926 | 2569 ft | 92 kts | 233° |
| 2026-05-08 01:16 | 35.51064 | -75.95521 | 2690 ft | 86 kts | 233° |
| 2026-05-08 01:17 | 35.50704 | -75.96088 | 2814 ft | 83 kts | 233° |
| 2026-05-08 01:17 | 35.50353 | -75.96640 | 2936 ft | 81 kts | 232° |
| 2026-05-08 01:17 | 35.50010 | -75.97178 | 3060 ft | 79 kts | 232° |
| 2026-05-08 01:17 | 35.49673 | -75.97705 | 3187 ft | 78 kts | 232° |
| 2026-05-08 01:18 | 35.49342 | -75.98223 | 3313 ft | 76 kts | 232° |
| 2026-05-08 01:18 | 35.49015 | -75.98731 | 3440 ft | 76 kts | 232° |
| 2026-05-08 01:18 | 35.48681 | -75.99252 | 3571 ft | 79 kts | 232° |
| 2026-05-08 01:18 | 35.48337 | -75.99787 | 3699 ft | 82 kts | 232° |
| 2026-05-08 01:19 | 35.47980 | -76.00344 | 3828 ft | 84 kts | 232° |
| 2026-05-08 01:19 | 35.47617 | -76.00909 | 3954 ft | 85 kts | 232° |
| 2026-05-08 01:19 | 35.47249 | -76.01480 | 4080 ft | 85 kts | 232° |
| 2026-05-08 01:19 | 35.46879 | -76.02053 | 4205 ft | 86 kts | 232° |
| 2026-05-08 01:20 | 35.46508 | -76.02626 | 4332 ft | 86 kts | 232° |
| 2026-05-08 01:20 | 35.46130 | -76.03210 | 4426 ft | 90 kts | 232° |
| 2026-05-08 01:20 | 35.45730 | -76.03829 | 4470 ft | 95 kts | 232° |
| 2026-05-08 01:20 | 35.45311 | -76.04477 | 4491 ft | 98 kts | 232° |
| 2026-05-08 01:21 | 35.44886 | -76.05133 | 4493 ft | 100 kts | 232° |
| 2026-05-08 01:21 | 35.44416 | -76.05766 | 4501 ft | 101 kts | 217° |
| 2026-05-08 01:21 | 35.43758 | -76.06040 | 4503 ft | 103 kts | 181° |
| 2026-05-08 01:21 | 35.43069 | -76.05814 | 4505 ft | 103 kts | 162° |
| 2026-05-08 01:22 | 35.42391 | -76.05545 | 4522 ft | 102 kts | 165° |
| 2026-05-08 01:22 | 35.41712 | -76.05266 | 4525 ft | 103 kts | 164° |
| 2026-05-08 01:22 | 35.41018 | -76.05046 | 4537 ft | 102 kts | 167° |
| 2026-05-08 01:22 | 35.40333 | -76.04809 | 4557 ft | 103 kts | 164° |
| 2026-05-08 01:23 | 35.39647 | -76.04562 | 4565 ft | 103 kts | 166° |
| 2026-05-08 01:23 | 35.38949 | -76.04385 | 4568 ft | 103 kts | 174° |
| 2026-05-08 01:23 | 35.38255 | -76.04241 | 4583 ft | 102 kts | 167° |
| 2026-05-08 01:23 | 35.37569 | -76.04001 | 4591 ft | 103 kts | 163° |
| 2026-05-08 01:24 | 35.36891 | -76.03725 | 4602 ft | 103 kts | 163° |
| 2026-05-08 01:24 | 35.36203 | -76.03490 | 4601 ft | 103 kts | 168° |
| 2026-05-08 01:24 | 35.35507 | -76.03280 | 4599 ft | 103 kts | 166° |
| 2026-05-08 01:24 | 35.34812 | -76.03071 | 4593 ft | 103 kts | 169° |
| 2026-05-08 01:25 | 35.34109 | -76.02903 | 4592 ft | 103 kts | 168° |
| 2026-05-08 01:25 | 35.33411 | -76.02712 | 4587 ft | 103 kts | 169° |
| 2026-05-08 01:25 | 35.32717 | -76.02495 | 4578 ft | 103 kts | 165° |
| 2026-05-08 01:25 | 35.32028 | -76.02255 | 4568 ft | 103 kts | 166° |
| 2026-05-08 01:26 | 35.31333 | -76.02049 | 4562 ft | 103 kts | 167° |
| 2026-05-08 01:26 | 35.30637 | -76.01850 | 4550 ft | 102 kts | 168° |
| 2026-05-08 01:26 | 35.29940 | -76.01647 | 4521 ft | 103 kts | 168° |
| 2026-05-08 01:26 | 35.29242 | -76.01461 | 4503 ft | 103 kts | 169° |
| 2026-05-08 01:27 | 35.28543 | -76.01276 | 4481 ft | 103 kts | 168° |
| 2026-05-08 01:27 | 35.27845 | -76.01092 | 4452 ft | 103 kts | 170° |
| 2026-05-08 01:27 | 35.27144 | -76.00934 | 4414 ft | 103 kts | 173° |
| 2026-05-08 01:27 | 35.26437 | -76.00816 | 4362 ft | 102 kts | 173° |
| 2026-05-08 01:28 | 35.25735 | -76.00681 | 4305 ft | 103 kts | 174° |
| 2026-05-08 01:28 | 35.25037 | -76.00568 | 4233 ft | 102 kts | 173° |
| 2026-05-08 01:28 | 35.24331 | -76.00465 | 4129 ft | 103 kts | 174° |
| 2026-05-08 01:28 | 35.23625 | -76.00367 | 4040 ft | 102 kts | 176° |
| 2026-05-08 01:29 | 35.22922 | -76.00273 | 3937 ft | 102 kts | 174° |
| 2026-05-08 01:29 | 35.22216 | -76.00167 | 3817 ft | 102 kts | 176° |
| 2026-05-08 01:29 | 35.21511 | -76.00109 | 3710 ft | 101 kts | 178° |
| 2026-05-08 01:29 | 35.20807 | -76.00064 | 3585 ft | 101 kts | 178° |
| 2026-05-08 01:30 | 35.20340 | -76.00038 | 3503 ft | 101 kts | 180° |
| 2026-05-08 01:30 | 35.19635 | -76.00028 | 3382 ft | 101 kts | 180° |
| 2026-05-08 01:30 | 35.18934 | -76.00004 | 3245 ft | 101 kts | 180° |
| 2026-05-08 01:30 | 35.18233 | -76.00000 | 3116 ft | 100 kts | 182° |
| 2026-05-08 01:31 | 35.17535 | -76.00011 | 2987 ft | 100 kts | 180° |
| 2026-05-08 01:31 | 35.16839 | -75.99958 | 2850 ft | 100 kts | 178° |
| 2026-05-08 01:31 | 35.16143 | -75.99881 | 2711 ft | 100 kts | 174° |
| 2026-05-08 01:31 | 35.15457 | -75.99726 | 2567 ft | 100 kts | 168° |
| 2026-05-08 01:32 | 35.14787 | -75.99492 | 2399 ft | 101 kts | 160° |
| 2026-05-08 01:32 | 35.14154 | -75.99131 | 2254 ft | 100 kts | 155° |
| 2026-05-08 01:32 | 35.13539 | -75.98731 | 2099 ft | 100 kts | 151° |
| 2026-05-08 01:32 | 35.12936 | -75.98309 | 1957 ft | 100 kts | 153° |
| 2026-05-08 01:33 | 35.12315 | -75.97933 | 1807 ft | 99 kts | 156° |
| 2026-05-08 01:33 | 35.11675 | -75.97613 | 1661 ft | 99 kts | 160° |
| 2026-05-08 01:33 | 35.11040 | -75.97288 | 1522 ft | 99 kts | 156° |
| 2026-05-08 01:33 | 35.10438 | -75.96874 | 1378 ft | 100 kts | 146° |
| 2026-05-08 01:34 | 35.09923 | -75.96318 | 1236 ft | 100 kts | 123° |
| 2026-05-08 01:34 | 35.09927 | -75.95542 | 1157 ft | 95 kts | 57° |
| 2026-05-08 01:34 | 35.10434 | -75.95055 | 1019 ft | 96 kts | 9° |
| 2026-05-08 01:34 | 35.11046 | -75.95331 | 874 ft | 94 kts | 316° |
| 2026-05-08 01:35 | 35.11450 | -75.95894 | 840 ft | 86 kts | 285° |
| 2026-05-08 01:35 | 35.11348 | -75.96588 | 798 ft | 84 kts | 234° |
| 2026-05-08 01:35 | 35.10945 | -75.97085 | 776 ft | 82 kts | 225° |
| 2026-05-08 01:35 | 35.10538 | -75.97592 | 740 ft | 81 kts | 226° |
| 2026-05-08 01:36 | 35.10135 | -75.98079 | 672 ft | 83 kts | 227° |
| 2026-05-08 01:36 | 35.09677 | -75.98459 | 614 ft | 83 kts | 184° |
| 2026-05-08 01:36 | 35.09221 | -75.98085 | 530 ft | 83 kts | 105° |
| 2026-05-08 01:36 | 35.09473 | -75.97499 | 334 ft | 83 kts | 43° |
| 2026-05-08 01:37 | 35.09834 | -75.97005 | 81 ft | 73 kts | 47° |
| 2026-05-08 01:37 | 35.10118 | -75.96595 | 7 ft | 51 kts | 50° |
| 2026-05-08 01:37 | 35.10294 | -75.96335 | 8 ft | 26 kts | 51° |
| 2026-05-08 01:37 | 35.10360 | -75.96294 | 10 ft | 11 kts | 316° |
| 2026-05-08 01:38 | 35.10414 | -75.96325 | 10 ft | 11 kts | 31° |
| 2026-05-08 01:38 | 35.10419 | -75.96296 | 10 ft | 0 kts | 139° |